createdAt,value
2023-02-12T00:01:44.800Z,4.00
2023-02-12T00:04:12.608Z,4.00
2023-02-12T00:06:40.676Z,4.00
2023-02-12T00:09:09.805Z,4.00
2023-02-12T00:11:37.694Z,4.00
2023-02-12T00:14:05.774Z,3.90
2023-02-12T00:16:33.584Z,3.90
2023-02-12T00:19:01.800Z,3.90
2023-02-12T00:21:29.773Z,3.90
2023-02-12T00:23:57.799Z,4.00
2023-02-12T00:26:26.987Z,3.90
2023-02-12T00:28:55.660Z,3.80
2023-02-12T00:31:25.412Z,3.80
2023-02-12T00:33:53.392Z,3.70
2023-02-12T00:36:24.168Z,3.70
2023-02-12T00:38:53.022Z,3.70
2023-02-12T00:41:21.084Z,3.80
2023-02-12T00:43:50.478Z,3.70
2023-02-12T00:46:18.322Z,3.60
2023-02-12T00:48:46.520Z,3.60
2023-02-12T00:51:15.036Z,3.70
2023-02-12T00:53:42.892Z,3.70
2023-02-12T00:56:10.791Z,3.70
2023-02-12T00:58:38.744Z,3.80
2023-02-12T01:01:08.198Z,3.70
2023-02-12T01:03:35.976Z,3.70
2023-02-12T01:06:03.847Z,3.70
2023-02-12T01:08:31.664Z,3.70
2023-02-12T01:11:00.816Z,3.70
2023-02-12T01:13:30.308Z,3.80
2023-02-12T01:16:09.235Z,3.70
2023-02-12T01:18:38.214Z,3.70
2023-02-12T01:21:10.780Z,3.70
2023-02-12T01:23:38.542Z,3.70
2023-02-12T01:26:07.405Z,3.70
2023-02-12T01:28:35.366Z,3.70
2023-02-12T01:31:05.152Z,3.80
2023-02-12T01:33:34.421Z,3.70
2023-02-12T01:36:02.233Z,3.70
2023-02-12T01:38:30.314Z,3.80
2023-02-12T01:41:03.812Z,3.80
2023-02-12T01:43:31.912Z,3.80
2023-02-12T01:46:01.096Z,3.70
2023-02-12T01:48:31.808Z,3.80
2023-02-12T01:51:03.730Z,3.70
2023-02-12T01:53:36.829Z,3.80
2023-02-12T01:56:05.582Z,3.80
2023-02-12T01:58:37.137Z,3.80
2023-02-12T02:01:08.235Z,3.80
2023-02-12T02:03:38.813Z,3.70
2023-02-12T02:06:12.663Z,3.70
2023-02-12T02:08:41.649Z,3.70
2023-02-12T02:11:23.784Z,3.70
2023-02-12T02:14:09.781Z,3.70
2023-02-12T02:16:38.704Z,3.70
2023-02-12T02:19:13.266Z,3.50
2023-02-12T02:22:03.025Z,3.50
2023-02-12T02:25:07.059Z,3.50
2023-02-12T02:27:42.956Z,3.50
2023-02-12T02:30:30.641Z,3.50
2023-02-12T02:33:11.369Z,3.50
2023-02-12T02:35:45.799Z,3.50
2023-02-12T02:38:22.102Z,3.60
2023-02-12T02:40:55.720Z,3.60
2023-02-12T02:43:28.463Z,3.60
2023-02-12T02:46:03.628Z,3.60
2023-02-12T02:48:36.581Z,3.60
2023-02-12T02:51:09.364Z,3.60
2023-02-12T02:53:41.790Z,3.60
2023-02-12T02:56:15.428Z,3.70
2023-02-12T02:58:47.256Z,3.60
2023-02-12T03:01:20.988Z,3.70
2023-02-12T03:03:54.746Z,3.70
2023-02-12T03:06:29.554Z,3.60
2023-02-12T03:08:59.949Z,3.70
2023-02-12T03:11:29.891Z,3.70
2023-02-12T03:14:03.695Z,3.70
2023-02-12T03:16:35.567Z,3.60
2023-02-12T03:19:10.114Z,3.60
2023-02-12T03:21:43.823Z,3.50
2023-02-12T03:24:16.126Z,3.50
2023-02-12T03:26:48.125Z,3.60
2023-02-12T03:29:16.388Z,3.70
2023-02-12T03:32:01.461Z,3.70
2023-02-12T03:34:41.107Z,3.70
2023-02-12T03:37:13.921Z,3.70
2023-02-12T03:39:50.402Z,3.60
2023-02-12T03:42:25.562Z,3.60
2023-02-12T03:44:57.706Z,3.60
2023-02-12T03:47:35.404Z,3.50
2023-02-12T03:50:10.873Z,3.50
2023-02-12T03:52:38.908Z,3.50
2023-02-12T03:55:08.215Z,3.60
2023-02-12T03:57:41.701Z,3.50
2023-02-12T04:00:13.427Z,3.50
2023-02-12T04:02:43.072Z,3.50
2023-02-12T04:05:20.211Z,3.60
2023-02-12T04:07:48.596Z,3.60
2023-02-12T04:10:17.243Z,3.60
2023-02-12T04:12:53.266Z,3.60
2023-02-12T04:15:47.990Z,3.60
2023-02-12T04:18:23.709Z,3.60
2023-02-12T04:20:59.048Z,3.50
2023-02-12T04:23:43.433Z,3.50
2023-02-12T04:26:21.348Z,3.50
2023-02-12T04:28:58.131Z,3.50
2023-02-12T04:31:30.929Z,3.40
2023-02-12T04:34:08.054Z,3.50
2023-02-12T04:36:41.094Z,3.50
2023-02-12T04:39:12.049Z,3.60
2023-02-12T04:41:40.559Z,3.60
2023-02-12T04:44:19.533Z,3.60
2023-02-12T04:46:47.343Z,3.60
2023-02-12T04:49:18.765Z,3.50
2023-02-12T04:51:47.333Z,3.60
2023-02-12T04:54:16.176Z,3.50
2023-02-12T04:56:44.693Z,3.60
2023-02-12T04:59:12.859Z,3.50
2023-02-12T05:01:41.096Z,3.50
2023-02-12T05:04:10.969Z,3.50
2023-02-12T05:06:41.167Z,3.50
2023-02-12T05:09:09.753Z,3.50
2023-02-12T05:11:37.518Z,3.50
2023-02-12T05:14:05.361Z,3.40
2023-02-12T05:16:33.259Z,3.40
2023-02-12T05:19:01.065Z,3.50
2023-02-12T05:21:29.131Z,3.50
2023-02-12T05:23:58.269Z,3.40
2023-02-12T05:26:26.044Z,3.40
2023-02-12T05:28:53.876Z,3.40
2023-02-12T05:31:22.145Z,3.50
2023-02-12T05:33:51.245Z,3.50
2023-02-12T05:36:20.796Z,3.50
2023-02-12T05:38:49.210Z,3.50
2023-02-12T05:41:21.168Z,3.50
2023-02-12T05:43:49.974Z,3.50
2023-02-12T05:46:19.022Z,3.40
2023-02-12T05:48:47.208Z,3.50
2023-02-12T05:51:17.021Z,3.50
2023-02-12T05:53:44.958Z,3.60
2023-02-12T05:56:14.800Z,3.60
2023-02-12T05:58:46.118Z,3.60
2023-02-12T06:01:17.344Z,3.50
2023-02-12T06:03:45.462Z,3.40
2023-02-12T06:06:13.748Z,3.50
2023-02-12T06:08:41.926Z,3.50
2023-02-12T06:11:14.231Z,3.60
2023-02-12T06:13:43.586Z,3.50
2023-02-12T06:16:18.777Z,3.40
2023-02-12T06:18:46.614Z,3.50
2023-02-12T06:21:14.642Z,3.40
2023-02-12T06:23:42.532Z,3.40
2023-02-12T06:26:10.732Z,3.50
2023-02-12T06:28:38.904Z,3.60
2023-02-12T06:31:19.177Z,3.50
2023-02-12T06:33:47.073Z,3.50
2023-02-12T06:36:15.261Z,3.50
2023-02-12T06:38:43.165Z,3.50
2023-02-12T06:41:11.051Z,3.50
2023-02-12T06:43:39.049Z,3.60
2023-02-12T06:46:09.109Z,3.60
2023-02-12T06:48:37.041Z,3.60
2023-02-12T06:51:09.745Z,3.60
2023-02-12T06:53:37.833Z,3.70
2023-02-12T06:56:11.040Z,3.70
2023-02-12T06:58:39.316Z,3.70
2023-02-12T07:01:13.339Z,3.70
2023-02-12T07:03:41.717Z,3.70
2023-02-12T07:06:10.676Z,3.70
2023-02-12T07:08:38.465Z,3.60
2023-02-12T07:11:06.955Z,3.70
2023-02-12T07:13:35.254Z,3.70
2023-02-12T07:16:07.662Z,3.70
2023-02-12T07:18:37.350Z,3.80
2023-02-12T07:21:06.988Z,3.80
2023-02-12T07:23:35.880Z,3.80
2023-02-12T07:26:05.728Z,3.80
2023-02-12T07:28:34.423Z,3.80
2023-02-12T07:31:07.871Z,3.90
2023-02-12T07:33:37.783Z,3.90
2023-02-12T07:36:07.500Z,3.90
2023-02-12T07:38:36.271Z,4.00
2023-02-12T07:41:12.185Z,4.00
2023-02-12T07:43:40.990Z,4.00
2023-02-12T07:46:13.756Z,4.10
2023-02-12T07:48:43.000Z,4.10
2023-02-12T07:51:12.514Z,4.00
2023-02-12T07:53:41.028Z,3.90
2023-02-12T07:56:11.106Z,4.00
2023-02-12T07:58:39.361Z,4.10
2023-02-12T08:01:15.669Z,4.20
2023-02-12T08:03:45.371Z,4.20
2023-02-12T08:06:15.494Z,4.30
2023-02-12T08:08:43.857Z,4.30
2023-02-12T08:11:13.258Z,4.20
2023-02-12T08:13:41.851Z,4.20
2023-02-12T08:16:12.043Z,4.30
2023-02-12T08:18:39.979Z,4.40
2023-02-12T08:21:11.711Z,4.40
2023-02-12T08:23:39.867Z,4.40
2023-02-12T08:26:09.914Z,4.50
2023-02-12T08:28:39.947Z,4.50
2023-02-12T08:31:12.815Z,4.60
2023-02-12T08:33:40.772Z,4.70
2023-02-12T08:36:11.468Z,4.80
2023-02-12T08:38:41.037Z,4.80
2023-02-12T08:41:11.000Z,4.90
2023-02-12T08:43:40.066Z,5.10
2023-02-12T08:46:09.967Z,5.10
2023-02-12T08:48:38.480Z,5.10
2023-02-12T08:51:08.541Z,5.20
2023-02-12T08:53:38.346Z,5.20
2023-02-12T08:56:07.195Z,5.30
2023-02-12T08:58:35.618Z,5.30
2023-02-12T09:01:03.856Z,5.30
2023-02-12T09:03:31.991Z,5.20
2023-02-12T09:05:59.789Z,5.30
2023-02-12T09:08:27.661Z,5.40
2023-02-12T09:10:56.781Z,5.40
2023-02-12T09:13:24.617Z,5.30
2023-02-12T09:15:52.677Z,5.40
2023-02-12T09:18:20.484Z,5.50
2023-02-12T09:20:48.304Z,5.50
2023-02-12T09:23:16.270Z,5.70
2023-02-12T09:25:46.387Z,5.70
2023-02-12T09:28:16.057Z,5.50
2023-02-12T09:30:43.946Z,5.50
2023-02-12T09:33:12.755Z,5.60
2023-02-12T09:35:41.802Z,5.70
2023-02-12T09:38:09.725Z,5.80
2023-02-12T09:40:45.481Z,5.70
2023-02-12T09:43:19.512Z,5.80
2023-02-12T09:45:56.828Z,5.80
2023-02-12T09:48:44.283Z,5.90
2023-02-12T09:51:12.901Z,6.00
2023-02-12T09:53:43.206Z,6.00
2023-02-12T09:56:15.306Z,6.10
2023-02-12T09:58:48.278Z,6.20
2023-02-12T10:01:19.027Z,6.30
2023-02-12T10:03:48.825Z,6.30
2023-02-12T10:06:19.872Z,6.60
2023-02-12T10:09:03.691Z,6.80
2023-02-12T10:11:54.292Z,6.80
2023-02-12T10:14:41.759Z,6.70
2023-02-12T10:17:20.414Z,6.90
2023-02-12T10:20:12.868Z,6.90
2023-02-12T10:22:56.756Z,6.90
2023-02-12T10:25:29.865Z,7.00
2023-02-12T10:28:02.069Z,7.00
2023-02-12T10:30:41.531Z,7.10
2023-02-12T10:33:17.209Z,7.10
2023-02-12T10:35:50.761Z,7.10
2023-02-12T10:38:22.407Z,7.10
2023-02-12T10:40:51.251Z,7.20
2023-02-12T10:43:19.110Z,7.00
2023-02-12T10:45:48.870Z,7.10
2023-02-12T10:48:21.144Z,7.10
2023-02-12T10:51:03.566Z,7.30
2023-02-12T10:53:34.227Z,7.20
2023-02-12T10:56:17.217Z,7.20
2023-02-12T10:58:53.851Z,7.30
2023-02-12T11:01:27.207Z,7.40
2023-02-12T11:03:55.596Z,7.40
2023-02-12T11:06:25.612Z,7.50
2023-02-12T11:08:54.289Z,7.50
2023-02-12T11:11:26.068Z,7.50
2023-02-12T11:14:00.734Z,7.50
2023-02-12T11:16:32.645Z,7.60
2023-02-12T11:19:02.809Z,7.40
2023-02-12T11:21:30.678Z,7.50
2023-02-12T11:23:58.767Z,7.60
2023-02-12T11:26:29.896Z,7.50
2023-02-12T11:28:59.543Z,7.50
2023-02-12T11:31:30.985Z,7.70
2023-02-12T11:34:10.333Z,7.90
2023-02-12T11:36:39.467Z,8.10
2023-02-12T11:39:14.768Z,8.10
2023-02-12T11:41:44.153Z,8.00
2023-02-12T11:44:14.274Z,8.10
2023-02-12T11:46:48.878Z,8.10
2023-02-12T11:49:21.815Z,8.20
2023-02-12T11:51:51.002Z,8.30
2023-02-12T11:54:23.743Z,8.40
2023-02-12T11:56:51.926Z,8.30
2023-02-12T11:59:30.558Z,8.20
2023-02-12T12:02:04.758Z,8.20
2023-02-12T12:04:35.655Z,8.10
2023-02-12T12:07:09.532Z,8.00
2023-02-12T12:09:43.774Z,8.20
2023-02-12T12:12:17.665Z,8.30
2023-02-12T12:15:07.308Z,8.30
2023-02-12T12:18:00.121Z,8.30
2023-02-12T12:20:33.277Z,8.30
2023-02-12T12:23:05.984Z,8.40
2023-02-12T12:25:42.905Z,8.40
2023-02-12T12:28:33.460Z,8.40
2023-02-12T12:31:07.523Z,8.60
2023-02-12T12:33:42.453Z,8.60
2023-02-12T12:36:31.941Z,8.60
2023-02-12T12:39:06.404Z,8.50
2023-02-12T12:41:42.229Z,8.50
2023-02-12T12:44:24.837Z,8.50
2023-02-12T12:47:06.636Z,8.70
2023-02-12T12:49:53.140Z,8.70
2023-02-12T12:52:49.780Z,8.70
2023-02-12T12:56:06.037Z,8.80
2023-02-12T12:58:43.311Z,8.70
2023-02-12T13:01:35.726Z,8.50
2023-02-12T13:04:48.335Z,8.30
2023-02-12T13:07:41.628Z,8.30
2023-02-12T13:10:20.560Z,8.50
2023-02-12T13:13:00.510Z,8.80
2023-02-12T13:15:37.219Z,8.90
2023-02-12T13:18:15.073Z,9.00
2023-02-12T13:20:52.211Z,9.00
2023-02-12T13:23:32.334Z,8.70
2023-02-12T13:26:07.393Z,8.70
2023-02-12T13:28:38.690Z,8.70
2023-02-12T13:31:29.981Z,8.70
2023-02-12T13:34:01.869Z,8.70
2023-02-12T13:36:29.918Z,8.80
2023-02-12T13:39:07.963Z,8.70
2023-02-12T13:41:37.096Z,8.90
2023-02-12T13:44:15.461Z,8.80
2023-02-12T13:46:55.813Z,8.90
2023-02-12T13:49:36.183Z,9.00
2023-02-12T13:52:07.882Z,8.80
2023-02-12T13:54:55.879Z,8.70
2023-02-12T13:57:23.847Z,8.50
2023-02-12T13:59:53.641Z,8.40
2023-02-12T14:02:42.524Z,8.30
2023-02-12T14:05:32.412Z,8.20
2023-02-12T14:08:05.739Z,8.20
2023-02-12T14:10:38.078Z,8.20
2023-02-12T14:13:17.461Z,8.10
2023-02-12T14:15:48.149Z,8.10
2023-02-12T14:18:26.816Z,8.10
2023-02-12T14:21:40.411Z,8.00
2023-02-12T14:24:50.600Z,8.20
2023-02-12T14:27:36.482Z,8.20
2023-02-12T14:30:38.341Z,8.20
2023-02-12T14:33:23.444Z,8.10
2023-02-12T14:36:16.411Z,8.10
2023-02-12T14:39:04.325Z,8.00
2023-02-12T14:41:41.981Z,7.90
2023-02-12T14:44:39.763Z,7.80
2023-02-12T14:47:17.277Z,7.70
2023-02-12T14:49:48.378Z,7.60
2023-02-12T14:52:19.825Z,7.70
2023-02-12T14:54:50.479Z,7.60
2023-02-12T14:57:25.221Z,7.60
2023-02-12T14:59:57.298Z,7.60
2023-02-12T15:02:27.325Z,7.60
2023-02-12T15:05:00.613Z,7.60
2023-02-12T15:07:34.119Z,7.40
2023-02-12T15:10:09.971Z,7.40
2023-02-12T15:12:42.137Z,7.40
2023-02-12T15:15:19.386Z,7.70
2023-02-12T15:17:56.512Z,9.10
2023-02-12T15:20:27.036Z,9.20
2023-02-12T15:22:54.864Z,9.30
2023-02-12T15:25:26.158Z,9.90
2023-02-12T15:27:57.920Z,9.80
2023-02-12T15:30:32.468Z,10.10
2023-02-12T15:33:03.437Z,10.70
2023-02-12T15:35:33.764Z,10.60
2023-02-12T15:38:02.077Z,9.60
2023-02-12T15:40:31.785Z,8.70
2023-02-12T15:43:01.625Z,8.20
2023-02-12T15:45:32.742Z,7.90
2023-02-12T15:48:13.443Z,7.70
2023-02-12T15:50:52.707Z,7.40
2023-02-12T15:53:21.433Z,7.10
2023-02-12T15:55:50.365Z,7.00
2023-02-12T15:58:24.755Z,7.00
2023-02-12T16:00:54.967Z,6.90
2023-02-12T16:03:25.173Z,6.80
2023-02-12T16:05:55.478Z,6.70
2023-02-12T16:08:25.008Z,6.60
2023-02-12T16:10:54.805Z,6.50
2023-02-12T16:13:28.235Z,6.40
2023-02-12T16:16:09.313Z,6.30
2023-02-12T16:18:37.181Z,6.20
2023-02-12T16:21:13.583Z,6.20
2023-02-12T16:23:44.343Z,6.10
2023-02-12T16:26:18.798Z,6.00
2023-02-12T16:28:49.292Z,6.00
2023-02-12T16:31:19.228Z,5.80
2023-02-12T16:33:49.341Z,5.80
2023-02-12T16:36:31.456Z,5.70
2023-02-12T16:39:01.542Z,5.70
2023-02-12T16:41:31.662Z,5.70
2023-02-12T16:44:23.619Z,5.60
2023-02-12T16:46:56.043Z,5.60
2023-02-12T16:49:25.904Z,5.50
2023-02-12T16:51:54.559Z,5.50
2023-02-12T16:54:31.174Z,5.40
2023-02-12T16:56:59.207Z,5.40
2023-02-12T16:59:27.553Z,5.30
2023-02-12T17:02:01.747Z,5.30
2023-02-12T17:04:29.620Z,5.30
2023-02-12T17:06:57.912Z,5.20
2023-02-12T17:09:25.937Z,5.10
2023-02-12T17:11:53.772Z,5.10
2023-02-12T17:14:21.991Z,5.10
2023-02-12T17:16:50.225Z,5.00
2023-02-12T17:19:19.364Z,5.00
2023-02-12T17:21:51.083Z,5.00
2023-02-12T17:24:21.892Z,5.00
2023-02-12T17:26:50.706Z,4.90
2023-02-12T17:29:19.307Z,5.00
2023-02-12T17:31:47.914Z,4.90
2023-02-12T17:34:16.744Z,4.90
2023-02-12T17:36:45.919Z,4.80
2023-02-12T17:39:14.947Z,4.80
2023-02-12T17:41:44.173Z,4.80
2023-02-12T17:44:13.846Z,4.70
2023-02-12T17:46:42.663Z,4.70
2023-02-12T17:49:10.786Z,4.70
2023-02-12T17:51:38.908Z,4.60
2023-02-12T17:54:08.070Z,4.60
2023-02-12T17:56:36.147Z,4.60
2023-02-12T17:59:03.956Z,4.60
2023-02-12T18:01:31.965Z,4.50
2023-02-12T18:04:00.224Z,4.50
2023-02-12T18:06:30.030Z,4.50
2023-02-12T18:08:58.508Z,4.40
2023-02-12T18:11:28.052Z,4.40
2023-02-12T18:13:58.289Z,4.40
2023-02-12T18:16:28.368Z,4.40
2023-02-12T18:18:57.097Z,4.30
2023-02-12T18:21:25.130Z,4.20
2023-02-12T18:23:54.346Z,4.20
2023-02-12T18:26:23.026Z,4.20
2023-02-12T18:28:53.717Z,4.20
2023-02-12T18:31:21.870Z,4.10
2023-02-12T18:33:49.730Z,4.10
2023-02-12T18:36:20.113Z,4.00
2023-02-12T18:38:49.668Z,4.00
2023-02-12T18:41:19.769Z,4.00
2023-02-12T18:43:47.981Z,4.00
2023-02-12T18:46:19.315Z,4.00
2023-02-12T18:48:47.687Z,4.10
2023-02-12T18:51:17.180Z,4.00
2023-02-12T18:53:46.350Z,4.00
2023-02-12T18:56:14.552Z,3.90
2023-02-12T18:58:42.465Z,3.90
2023-02-12T19:01:14.654Z,3.90
2023-02-12T19:03:43.970Z,3.90
2023-02-12T19:06:12.663Z,3.90
2023-02-12T19:08:40.607Z,3.80
2023-02-12T19:11:08.994Z,3.80
2023-02-12T19:13:37.114Z,3.80
2023-02-12T19:16:08.333Z,3.70
2023-02-12T19:18:36.375Z,3.70
2023-02-12T19:21:08.312Z,3.60
2023-02-12T19:23:36.541Z,3.60
2023-02-12T19:26:05.942Z,3.60
2023-02-12T19:28:34.632Z,3.60
2023-02-12T19:31:11.440Z,3.50
2023-02-12T19:33:40.793Z,3.40
2023-02-12T19:36:12.195Z,3.50
2023-02-12T19:38:40.541Z,3.40
2023-02-12T19:41:10.040Z,3.40
2023-02-12T19:43:38.398Z,3.40
2023-02-12T19:46:07.902Z,3.30
2023-02-12T19:48:36.274Z,3.30
2023-02-12T19:51:05.573Z,3.20
2023-02-12T19:53:34.822Z,3.20
2023-02-12T19:56:03.426Z,3.20
2023-02-12T19:58:31.446Z,3.20
2023-02-12T20:00:59.365Z,3.20
2023-02-12T20:03:27.302Z,3.20
2023-02-12T20:06:01.360Z,3.20
2023-02-12T20:08:29.267Z,3.10
2023-02-12T20:10:58.674Z,3.10
2023-02-12T20:13:27.343Z,3.10
2023-02-12T20:15:55.206Z,3.10
2023-02-12T20:18:23.735Z,3.10
2023-02-12T20:20:51.525Z,3.10
2023-02-12T20:23:19.352Z,3.10
2023-02-12T20:25:47.568Z,3.10
2023-02-12T20:28:16.815Z,3.10
2023-02-12T20:30:46.418Z,3.00
2023-02-12T20:33:14.281Z,3.00
2023-02-12T20:35:42.069Z,3.10
2023-02-12T20:38:09.840Z,3.00
2023-02-12T20:40:38.464Z,3.10
2023-02-12T20:43:06.317Z,3.00
2023-02-12T20:45:36.084Z,2.90
2023-02-12T20:48:03.954Z,3.00
2023-02-12T20:50:31.813Z,2.90
2023-02-12T20:52:59.653Z,2.90
2023-02-12T20:55:27.518Z,2.90
2023-02-12T20:57:55.364Z,3.00
2023-02-12T21:00:23.280Z,2.90
2023-02-12T21:02:54.442Z,2.90
2023-02-12T21:05:22.383Z,2.80
2023-02-12T21:07:51.445Z,2.90
2023-02-12T21:10:19.525Z,2.80
2023-02-12T21:12:47.312Z,2.80
2023-02-12T21:15:15.177Z,2.90
2023-02-12T21:17:42.992Z,2.90
2023-02-12T21:20:12.534Z,2.80
2023-02-12T21:22:40.352Z,2.80
2023-02-12T21:25:08.493Z,2.90
2023-02-12T21:27:40.451Z,3.00
2023-02-12T21:30:09.585Z,2.90
2023-02-12T21:32:37.482Z,2.90
2023-02-12T21:35:05.445Z,3.00
2023-02-12T21:37:34.598Z,2.80
2023-02-12T21:40:02.423Z,2.80
2023-02-12T21:42:31.096Z,2.80
2023-02-12T21:44:58.939Z,2.70
2023-02-12T21:47:27.169Z,2.80
2023-02-12T21:49:54.969Z,2.80
2023-02-12T21:52:22.730Z,2.70
2023-02-12T21:54:53.438Z,2.70
2023-02-12T21:57:21.788Z,2.70
2023-02-12T21:59:49.564Z,2.70
2023-02-12T22:02:17.345Z,2.70
2023-02-12T22:04:45.430Z,2.60
2023-02-12T22:07:13.200Z,2.60
2023-02-12T22:09:40.929Z,2.60
2023-02-12T22:12:10.129Z,2.70
2023-02-12T22:14:37.913Z,2.70
2023-02-12T22:17:05.732Z,2.70
2023-02-12T22:19:33.730Z,2.60
2023-02-12T22:22:01.501Z,2.60
2023-02-12T22:24:29.313Z,2.50
2023-02-12T22:26:57.198Z,2.50
2023-02-12T22:29:26.296Z,2.50
2023-02-12T22:31:54.161Z,2.60
2023-02-12T22:34:22.039Z,2.60
2023-02-12T22:36:49.858Z,2.60
2023-02-12T22:39:18.436Z,2.60
2023-02-12T22:41:46.991Z,2.70
2023-02-12T22:44:19.453Z,2.60
2023-02-12T22:46:50.307Z,2.60
2023-02-12T22:49:18.494Z,2.60
2023-02-12T22:51:46.695Z,2.60
2023-02-12T22:54:15.808Z,2.70
2023-02-12T22:56:44.106Z,2.50
2023-02-12T22:59:13.122Z,2.50
2023-02-12T23:01:40.949Z,2.60
2023-02-12T23:04:14.790Z,2.60
2023-02-12T23:06:42.603Z,2.60
2023-02-12T23:09:13.985Z,2.60
2023-02-12T23:11:41.848Z,2.60
2023-02-12T23:14:09.619Z,2.50
2023-02-12T23:16:37.628Z,2.50
2023-02-12T23:19:05.833Z,2.50
2023-02-12T23:21:35.252Z,2.50
2023-02-12T23:24:03.025Z,2.50
2023-02-12T23:26:31.073Z,2.50
2023-02-12T23:28:59.313Z,2.50
2023-02-12T23:31:27.254Z,2.50
2023-02-12T23:33:55.172Z,2.50
2023-02-12T23:36:22.966Z,2.50
2023-02-12T23:38:52.109Z,2.50
2023-02-12T23:41:19.987Z,2.40
2023-02-12T23:43:47.727Z,2.40
2023-02-12T23:46:15.574Z,2.50
2023-02-12T23:48:44.404Z,2.40
2023-02-12T23:51:12.246Z,2.50
2023-02-12T23:53:40.028Z,2.50
2023-02-12T23:56:09.570Z,2.40
2023-02-12T23:58:37.366Z,2.40
